createdAt,value
2023-02-06T00:01:26.513Z,79456.09
2023-02-06T00:03:55.873Z,79458.16
2023-02-06T00:06:23.852Z,79464.25
2023-02-06T00:08:51.695Z,79472.44
2023-02-06T00:11:21.200Z,79476.50
2023-02-06T00:13:49.545Z,79480.59
2023-02-06T00:16:18.993Z,79472.44
2023-02-06T00:18:47.013Z,79464.25
2023-02-06T00:21:18.126Z,79462.22
2023-02-06T00:23:45.871Z,79464.25
2023-02-06T00:26:13.658Z,79470.38
2023-02-06T00:28:41.721Z,79468.34
2023-02-06T00:31:10.293Z,79470.38
2023-02-06T00:33:39.681Z,79464.25
2023-02-06T00:36:08.590Z,79462.22
2023-02-06T00:38:38.916Z,79476.50
2023-02-06T00:41:07.138Z,79480.59
2023-02-06T00:43:35.304Z,79484.69
2023-02-06T00:46:03.181Z,79488.75
2023-02-06T00:48:31.027Z,79492.84
2023-02-06T00:50:59.030Z,79488.75
2023-02-06T00:53:26.799Z,79492.84
2023-02-06T00:55:56.011Z,79496.91
2023-02-06T00:58:23.939Z,79492.84
2023-02-06T01:00:53.468Z,79484.69
2023-02-06T01:03:21.344Z,79494.88
2023-02-06T01:05:49.617Z,79501.00
2023-02-06T01:08:17.437Z,79496.91
2023-02-06T01:10:46.158Z,79488.75
2023-02-06T01:13:15.663Z,79488.75
2023-02-06T01:15:43.434Z,79488.75
2023-02-06T01:18:11.376Z,79484.69
2023-02-06T01:20:41.341Z,79492.84
2023-02-06T01:23:09.084Z,79496.91
2023-02-06T01:25:37.855Z,79492.84
2023-02-06T01:28:06.170Z,79488.75
2023-02-06T01:30:35.736Z,79492.84
2023-02-06T01:33:03.529Z,79480.59
2023-02-06T01:35:31.259Z,79484.69
2023-02-06T01:37:59.005Z,79484.69
2023-02-06T01:40:26.956Z,79482.63
2023-02-06T01:42:54.691Z,79490.78
2023-02-06T01:45:45.848Z,79501.00
2023-02-06T01:48:18.299Z,79515.28
2023-02-06T01:50:49.320Z,79533.66
2023-02-06T01:53:19.188Z,79549.97
2023-02-06T01:55:50.504Z,79568.34
2023-02-06T01:58:22.431Z,79570.38
2023-02-06T02:00:51.767Z,79572.44
2023-02-06T02:03:19.788Z,79556.09
2023-02-06T02:05:49.020Z,79552.03
2023-02-06T02:08:21.823Z,79549.97
2023-02-06T02:10:49.607Z,79545.91
2023-02-06T02:13:17.658Z,79552.03
2023-02-06T02:15:58.923Z,79543.84
2023-02-06T02:18:45.982Z,79537.72
2023-02-06T02:21:56.248Z,79529.56
2023-02-06T02:24:31.898Z,79525.50
2023-02-06T02:27:22.809Z,79533.66
2023-02-06T02:30:38.354Z,79539.78
2023-02-06T02:33:44.771Z,79537.72
2023-02-06T02:36:23.401Z,79537.72
2023-02-06T02:39:00.750Z,79529.56
2023-02-06T02:41:34.730Z,79527.53
2023-02-06T02:44:08.206Z,79529.56
2023-02-06T02:46:38.516Z,79529.56
2023-02-06T02:49:10.503Z,79529.56
2023-02-06T02:51:41.547Z,79541.81
2023-02-06T02:54:09.718Z,79549.97
2023-02-06T02:56:37.483Z,79549.97
2023-02-06T02:59:11.793Z,79545.91
2023-02-06T03:01:43.736Z,79547.94
2023-02-06T03:04:17.413Z,79558.16
2023-02-06T03:06:58.735Z,79556.09
2023-02-06T03:09:40.232Z,79554.06
2023-02-06T03:12:14.408Z,79554.06
2023-02-06T03:14:46.832Z,79556.09
2023-02-06T03:17:19.520Z,79562.22
2023-02-06T03:19:52.604Z,79562.22
2023-02-06T03:22:22.834Z,79566.31
2023-02-06T03:24:53.575Z,79570.38
2023-02-06T03:27:23.598Z,79566.31
2023-02-06T03:29:54.733Z,79582.63
2023-02-06T03:32:26.903Z,79578.56
2023-02-06T03:35:00.768Z,79586.72
2023-02-06T03:37:30.835Z,79584.69
2023-02-06T03:40:01.682Z,79586.72
2023-02-06T03:42:31.962Z,79586.72
2023-02-06T03:45:04.497Z,79596.91
2023-02-06T03:47:34.682Z,79607.13
2023-02-06T03:50:04.229Z,79627.53
2023-02-06T03:52:38.182Z,79639.78
2023-02-06T03:55:10.781Z,79643.84
2023-02-06T03:57:39.830Z,79664.28
2023-02-06T04:00:08.757Z,79652.03
2023-02-06T04:02:37.284Z,79639.78
2023-02-06T04:05:05.538Z,79627.53
2023-02-06T04:07:36.959Z,79627.53
2023-02-06T04:10:05.267Z,79629.56
2023-02-06T04:12:33.057Z,79623.44
2023-02-06T04:15:00.810Z,79611.22
2023-02-06T04:17:46.339Z,79607.13
2023-02-06T04:20:16.348Z,79601.00
2023-02-06T04:22:45.463Z,79623.44
2023-02-06T04:25:13.228Z,79631.63
2023-02-06T04:27:41.057Z,79631.63
2023-02-06T04:30:10.189Z,79627.53
2023-02-06T04:32:37.998Z,79631.63
2023-02-06T04:35:06.545Z,79631.63
2023-02-06T04:37:34.340Z,79631.63
2023-02-06T04:40:03.464Z,79629.56
2023-02-06T04:42:31.279Z,79631.63
2023-02-06T04:44:59.127Z,79641.81
2023-02-06T04:47:26.912Z,79639.78
2023-02-06T04:49:54.738Z,79643.84
2023-02-06T04:52:22.554Z,79635.69
2023-02-06T04:54:50.311Z,79631.63
2023-02-06T04:57:19.468Z,79629.56
2023-02-06T04:59:47.377Z,79627.53
2023-02-06T05:02:15.115Z,79627.53
2023-02-06T05:04:42.976Z,79643.84
2023-02-06T05:07:10.731Z,79643.84
2023-02-06T05:09:38.491Z,79643.84
2023-02-06T05:12:06.442Z,79641.81
2023-02-06T05:14:35.588Z,79635.69
2023-02-06T05:17:03.355Z,79631.63
2023-02-06T05:19:31.154Z,79631.63
2023-02-06T05:21:58.919Z,79633.66
2023-02-06T05:24:26.656Z,79619.38
2023-02-06T05:26:57.830Z,79617.31
2023-02-06T05:29:25.768Z,79613.25
2023-02-06T05:31:54.895Z,79617.31
2023-02-06T05:34:22.801Z,79619.38
2023-02-06T05:36:50.580Z,79615.28
2023-02-06T05:39:18.305Z,79609.16
2023-02-06T05:41:46.105Z,79615.28
2023-02-06T05:44:13.837Z,79619.38
2023-02-06T05:46:41.582Z,79619.38
2023-02-06T05:49:10.803Z,79625.50
2023-02-06T05:51:38.531Z,79625.50
2023-02-06T05:54:06.352Z,79619.38
2023-02-06T05:56:34.129Z,79619.38
2023-02-06T05:59:01.898Z,79605.09
2023-02-06T06:01:29.686Z,79603.03
2023-02-06T06:03:57.707Z,79598.97
2023-02-06T06:06:26.871Z,79594.88
2023-02-06T06:08:54.613Z,79584.69
2023-02-06T06:11:22.423Z,79570.38
2023-02-06T06:13:50.207Z,79566.31
2023-02-06T06:16:17.996Z,79570.38
2023-02-06T06:18:45.891Z,79558.16
2023-02-06T06:21:13.646Z,79562.22
2023-02-06T06:23:42.754Z,79566.31
2023-02-06T06:26:10.676Z,79566.31
2023-02-06T06:28:38.900Z,79562.22
2023-02-06T06:31:08.868Z,79558.16
2023-02-06T06:33:36.777Z,79562.22
2023-02-06T06:36:05.808Z,79562.22
2023-02-06T06:38:33.602Z,79564.25
2023-02-06T06:41:02.907Z,79562.22
2023-02-06T06:43:30.986Z,79554.06
2023-02-06T06:46:00.394Z,79558.16
2023-02-06T06:48:28.270Z,79549.97
2023-02-06T06:50:56.075Z,79549.97
2023-02-06T06:53:23.853Z,79545.91
2023-02-06T06:55:51.578Z,79541.81
2023-02-06T06:58:21.043Z,79523.44
2023-02-06T07:00:48.805Z,79515.28
2023-02-06T07:03:16.625Z,79509.16
2023-02-06T07:05:44.527Z,79498.97
2023-02-06T07:08:12.339Z,79484.69
2023-02-06T07:10:40.072Z,79476.50
2023-02-06T07:13:07.902Z,79460.19
2023-02-06T07:15:37.463Z,79462.22
2023-02-06T07:18:05.469Z,79452.03
2023-02-06T07:20:34.784Z,79449.97
2023-02-06T07:23:02.567Z,79431.63
2023-02-06T07:25:30.371Z,79427.53
2023-02-06T07:27:58.220Z,79431.63
2023-02-06T07:30:26.166Z,79435.69
2023-02-06T07:32:57.588Z,79423.44
2023-02-06T07:35:25.435Z,79411.22
2023-02-06T07:37:54.191Z,79398.97
2023-02-06T07:40:21.968Z,79382.63
2023-02-06T07:42:49.845Z,79366.31
2023-02-06T07:45:18.310Z,79362.22
2023-02-06T07:47:46.069Z,79333.66
2023-02-06T07:50:15.205Z,79317.34
2023-02-06T07:52:42.945Z,79319.38
2023-02-06T07:55:11.183Z,79313.25
2023-02-06T07:57:39.013Z,79325.50
2023-02-06T08:00:07.943Z,79323.44
2023-02-06T08:02:35.694Z,79303.03
2023-02-06T08:05:03.487Z,79294.88
2023-02-06T08:07:32.572Z,79272.44
2023-02-06T08:10:00.362Z,79256.13
2023-02-06T08:12:30.474Z,79256.13
2023-02-06T08:14:58.217Z,79262.22
2023-02-06T08:17:26.067Z,79258.16
2023-02-06T08:19:53.874Z,79260.19
2023-02-06T08:22:21.706Z,79252.03
2023-02-06T08:24:50.806Z,79247.94
2023-02-06T08:27:18.619Z,79247.94
2023-02-06T08:29:46.455Z,79256.13
2023-02-06T08:32:14.203Z,79252.03
2023-02-06T08:34:42.147Z,79239.78
2023-02-06T08:37:09.939Z,79239.78
2023-02-06T08:39:38.166Z,79235.72
2023-02-06T08:42:07.305Z,79215.28
2023-02-06T08:44:35.331Z,79219.38
2023-02-06T08:47:10.154Z,79211.22
2023-02-06T08:49:39.164Z,79198.97
2023-02-06T08:52:06.940Z,79209.19
2023-02-06T08:54:36.866Z,79207.13
2023-02-06T08:57:07.572Z,79182.66
2023-02-06T08:59:35.351Z,79190.81
2023-02-06T09:02:03.126Z,79194.88
2023-02-06T09:04:32.626Z,79194.88
2023-02-06T09:07:00.391Z,79180.59
2023-02-06T09:09:28.168Z,79174.47
2023-02-06T09:12:02.103Z,79178.56
2023-02-06T09:14:31.770Z,79162.25
2023-02-06T09:16:59.621Z,79145.91
2023-02-06T09:19:27.493Z,79147.97
2023-02-06T09:21:55.481Z,79137.75
2023-02-06T09:24:23.748Z,79129.59
2023-02-06T09:26:59.792Z,79107.16
2023-02-06T09:29:31.510Z,79088.78
2023-02-06T09:32:01.489Z,79086.75
2023-02-06T09:34:29.931Z,79092.88
2023-02-06T09:36:57.931Z,79078.56
2023-02-06T09:39:26.656Z,79066.34
2023-02-06T09:41:57.848Z,79064.28
2023-02-06T09:44:31.538Z,79062.25
2023-02-06T09:47:05.328Z,79047.97
2023-02-06T09:49:38.018Z,79054.09
2023-02-06T09:52:30.371Z,79060.22
2023-02-06T09:55:04.400Z,79031.66
2023-02-06T09:57:42.590Z,79003.06
2023-02-06T10:00:21.989Z,78986.75
2023-02-06T10:03:04.746Z,78986.75
2023-02-06T10:05:45.196Z,78974.50
2023-02-06T10:08:20.380Z,78960.22
2023-02-06T10:10:52.104Z,78933.69
2023-02-06T10:13:25.333Z,78915.34
2023-02-06T10:15:57.023Z,78896.97
2023-02-06T10:18:33.456Z,78872.50
2023-02-06T10:21:06.052Z,78860.25
2023-02-06T10:23:40.467Z,78852.09
2023-02-06T10:26:12.495Z,78864.31
2023-02-06T10:28:41.621Z,78876.56
2023-02-06T10:31:40.558Z,78841.88
2023-02-06T10:34:25.511Z,78823.53
2023-02-06T10:37:06.286Z,78835.75
2023-02-06T10:39:46.700Z,78831.69
2023-02-06T10:42:22.780Z,78827.59
2023-02-06T10:45:13.128Z,78815.34
2023-02-06T10:47:50.826Z,78807.19
2023-02-06T10:50:29.370Z,78794.94
2023-02-06T10:53:01.084Z,78776.59
2023-02-06T10:55:37.162Z,78762.31
2023-02-06T10:58:15.087Z,78770.47
2023-02-06T11:00:45.842Z,78774.53
2023-02-06T11:03:16.905Z,78762.31
2023-02-06T11:05:46.256Z,78782.72
2023-02-06T11:08:20.597Z,78774.53
2023-02-06T11:10:48.829Z,78758.22
2023-02-06T11:13:24.452Z,78729.66
2023-02-06T11:15:58.716Z,78692.94
2023-02-06T11:18:30.624Z,78666.41
2023-02-06T11:20:59.788Z,78656.22
2023-02-06T11:23:29.010Z,78668.44
2023-02-06T11:26:05.713Z,78650.09
2023-02-06T11:28:35.468Z,78635.81
2023-02-06T11:31:05.247Z,78637.84
2023-02-06T11:33:49.060Z,78692.94
2023-02-06T11:36:28.354Z,78717.41
2023-02-06T11:38:59.194Z,78709.25
2023-02-06T11:41:27.853Z,78717.41
2023-02-06T11:44:02.481Z,78705.19
2023-02-06T11:46:35.126Z,78694.97
2023-02-06T11:49:09.146Z,78684.78
2023-02-06T11:51:51.522Z,78699.06
2023-02-06T11:54:25.101Z,78701.09
2023-02-06T11:56:58.325Z,78701.09
2023-02-06T11:59:27.466Z,78705.19
2023-02-06T12:01:55.617Z,78713.34
2023-02-06T12:04:31.538Z,78690.91
2023-02-06T12:07:07.797Z,78699.06
2023-02-06T12:09:35.688Z,78688.84
2023-02-06T12:12:12.437Z,78721.50
2023-02-06T12:14:44.790Z,78705.19
2023-02-06T12:17:23.474Z,78664.38
2023-02-06T12:19:59.728Z,78660.28
2023-02-06T12:22:28.906Z,78650.09
2023-02-06T12:25:00.132Z,78623.56
2023-02-06T12:27:32.832Z,78629.69
2023-02-06T12:30:06.773Z,78615.41
2023-02-06T12:32:41.818Z,78595.00
2023-02-06T12:35:17.274Z,78566.44
2023-02-06T12:37:56.010Z,78554.19
2023-02-06T12:40:39.797Z,78544.00
2023-02-06T12:43:10.888Z,78527.66
2023-02-06T12:45:47.111Z,78509.31
2023-02-06T12:48:21.555Z,78493.00
2023-02-06T12:51:05.830Z,78476.66
2023-02-06T12:53:38.874Z,78468.50
2023-02-06T12:56:15.495Z,78456.25
2023-02-06T12:59:03.004Z,78464.41
2023-02-06T13:01:52.037Z,78452.19
2023-02-06T13:04:24.985Z,78452.19
2023-02-06T13:06:55.478Z,78466.47
2023-02-06T13:09:29.171Z,78466.47
2023-02-06T13:12:09.380Z,78462.38
2023-02-06T13:14:39.852Z,78444.03
2023-02-06T13:17:11.683Z,78425.66
2023-02-06T13:20:03.995Z,78417.50
2023-02-06T13:22:43.891Z,78411.38
2023-02-06T13:25:53.613Z,78395.06
2023-02-06T13:29:00.641Z,78405.25
2023-02-06T13:31:31.389Z,78403.22
2023-02-06T13:34:02.960Z,78435.88
2023-02-06T13:36:52.860Z,78444.03
2023-02-06T13:39:29.638Z,78472.59
2023-02-06T13:42:01.052Z,78474.63
2023-02-06T13:44:33.669Z,78476.66
2023-02-06T13:47:34.205Z,78456.25
2023-02-06T13:50:20.409Z,78472.59
2023-02-06T13:52:57.946Z,78495.03
2023-02-06T13:55:39.028Z,78490.94
2023-02-06T13:58:32.472Z,78472.59
2023-02-06T14:01:04.160Z,78476.66
2023-02-06T14:03:34.744Z,78460.34
2023-02-06T14:06:16.689Z,78462.38
2023-02-06T14:08:55.046Z,78462.38
2023-02-06T14:11:34.105Z,78468.50
2023-02-06T14:14:24.793Z,78484.81
2023-02-06T14:17:06.812Z,78482.78
2023-02-06T14:19:41.973Z,78474.63
2023-02-06T14:22:23.147Z,78464.41
2023-02-06T14:25:05.326Z,78458.31
2023-02-06T14:27:45.803Z,78456.25
2023-02-06T14:30:28.017Z,78464.41
2023-02-06T14:33:07.597Z,78464.41
2023-02-06T14:35:48.778Z,78460.34
2023-02-06T14:38:53.850Z,78464.41
2023-02-06T14:41:21.938Z,78470.53
2023-02-06T14:43:51.742Z,78472.59
2023-02-06T14:46:20.897Z,78484.81
2023-02-06T14:48:53.060Z,78501.16
2023-02-06T14:51:25.544Z,78495.03
2023-02-06T14:53:56.438Z,78468.50
2023-02-06T14:56:32.317Z,78480.75
2023-02-06T14:59:15.253Z,78482.78
2023-02-06T15:01:44.689Z,78493.00
2023-02-06T15:04:16.043Z,78464.41
2023-02-06T15:06:50.752Z,78439.94
2023-02-06T15:09:27.403Z,78448.09
2023-02-06T15:11:57.605Z,78484.81
2023-02-06T15:14:28.392Z,78497.06
2023-02-06T15:16:59.764Z,78517.47
2023-02-06T15:19:30.925Z,78525.63
2023-02-06T15:22:01.812Z,78523.59
2023-02-06T15:24:52.020Z,78509.31
2023-02-06T15:27:28.272Z,78535.84
2023-02-06T15:29:56.870Z,78544.00
2023-02-06T15:32:30.012Z,78562.34
2023-02-06T15:35:00.749Z,78556.22
2023-02-06T15:37:31.149Z,78582.75
2023-02-06T15:40:05.606Z,78590.91
2023-02-06T15:42:33.643Z,78603.16
2023-02-06T15:45:02.027Z,78603.16
2023-02-06T15:47:30.226Z,78590.91
2023-02-06T15:50:00.544Z,78607.25
2023-02-06T15:52:37.491Z,78615.41
2023-02-06T15:55:05.855Z,78633.75
2023-02-06T15:57:36.407Z,78643.97
2023-02-06T16:00:09.212Z,78652.13
2023-02-06T16:02:40.751Z,78660.28
2023-02-06T16:05:19.760Z,78660.28
2023-02-06T16:07:49.277Z,78676.59
2023-02-06T16:10:22.984Z,78684.78
2023-02-06T16:12:52.275Z,78701.09
2023-02-06T16:15:28.771Z,78719.47
2023-02-06T16:17:57.247Z,78737.81
2023-02-06T16:20:36.958Z,78762.31
2023-02-06T16:23:26.706Z,78784.75
2023-02-06T16:26:04.336Z,78794.94
2023-02-06T16:28:32.207Z,78799.03
2023-02-06T16:31:03.136Z,78805.16
2023-02-06T16:33:35.528Z,78811.28
2023-02-06T16:36:05.041Z,78823.53
2023-02-06T16:38:33.065Z,78843.91
2023-02-06T16:41:00.908Z,78856.16
2023-02-06T16:43:30.867Z,78866.38
2023-02-06T16:46:00.449Z,78876.56
2023-02-06T16:48:28.326Z,78894.94
2023-02-06T16:50:56.271Z,78907.19
2023-02-06T16:53:26.607Z,78919.41
2023-02-06T16:55:54.398Z,78929.63
2023-02-06T16:58:24.673Z,78935.75
2023-02-06T17:00:52.992Z,78945.94
2023-02-06T17:03:20.763Z,78954.09
2023-02-06T17:05:50.404Z,78974.50
2023-02-06T17:08:19.588Z,78982.69
2023-02-06T17:10:49.001Z,78990.84
2023-02-06T17:13:18.075Z,78990.84
2023-02-06T17:15:47.088Z,78999.00
2023-02-06T17:18:17.580Z,79003.06
2023-02-06T17:20:47.473Z,79007.16
2023-02-06T17:23:15.313Z,79007.16
2023-02-06T17:25:45.323Z,79019.41
2023-02-06T17:28:17.058Z,79029.59
2023-02-06T17:30:46.267Z,79033.69
2023-02-06T17:33:14.220Z,79035.72
2023-02-06T17:35:42.083Z,79035.72
2023-02-06T17:38:11.112Z,79039.81
2023-02-06T17:40:40.960Z,79041.84
2023-02-06T17:43:09.666Z,79041.84
2023-02-06T17:45:40.519Z,79050.00
2023-02-06T17:48:08.980Z,79058.16
2023-02-06T17:50:38.464Z,79056.13
2023-02-06T17:53:07.099Z,79064.28
2023-02-06T17:55:36.302Z,79064.28
2023-02-06T17:58:04.268Z,79072.47
2023-02-06T18:00:32.106Z,79080.63
2023-02-06T18:03:01.336Z,79084.69
2023-02-06T18:05:29.493Z,79084.69
2023-02-06T18:07:57.237Z,79092.88
2023-02-06T18:10:26.268Z,79101.03
2023-02-06T18:12:54.111Z,79113.25
2023-02-06T18:15:22.395Z,79119.38
2023-02-06T18:17:50.636Z,79117.34
2023-02-06T18:20:20.005Z,79131.63
2023-02-06T18:22:47.884Z,79127.56
2023-02-06T18:25:16.065Z,79121.44
2023-02-06T18:27:45.645Z,79125.50
2023-02-06T18:30:14.745Z,79129.59
2023-02-06T18:32:42.527Z,79133.69
2023-02-06T18:35:11.257Z,79133.69
2023-02-06T18:37:40.374Z,79137.75
2023-02-06T18:40:08.758Z,79143.88
2023-02-06T18:42:54.488Z,79158.16
2023-02-06T18:45:23.770Z,79166.31
2023-02-06T18:47:52.337Z,79166.31
2023-02-06T18:50:21.967Z,79162.25
2023-02-06T18:52:51.381Z,79166.31
2023-02-06T18:55:19.464Z,79170.41
2023-02-06T18:57:47.553Z,79174.47
2023-02-06T19:00:17.137Z,79176.53
2023-02-06T19:02:44.917Z,79178.56
2023-02-06T19:05:12.736Z,79190.81
2023-02-06T19:07:40.631Z,79198.97
2023-02-06T19:10:12.984Z,79207.13
2023-02-06T19:12:40.882Z,79219.38
2023-02-06T19:15:09.887Z,79227.53
2023-02-06T19:17:38.144Z,79227.53
2023-02-06T19:20:07.024Z,79231.63
2023-02-06T19:22:35.292Z,79227.53
2023-02-06T19:25:03.536Z,79233.66
2023-02-06T19:27:32.707Z,79241.81
2023-02-06T19:30:00.457Z,79239.78
2023-02-06T19:32:29.176Z,79235.72
2023-02-06T19:34:57.845Z,79243.88
2023-02-06T19:37:25.613Z,79243.88
2023-02-06T19:39:53.387Z,79252.03
2023-02-06T19:42:21.262Z,79268.34
2023-02-06T19:44:54.655Z,79272.44
2023-02-06T19:47:22.787Z,79276.53
2023-02-06T19:49:52.499Z,79276.53
2023-02-06T19:52:20.509Z,79286.72
2023-02-06T19:54:48.669Z,79284.69
2023-02-06T19:57:19.290Z,79292.84
2023-02-06T19:59:47.066Z,79309.16
2023-02-06T20:02:17.134Z,79309.16
2023-02-06T20:04:46.154Z,79321.41
2023-02-06T20:07:13.914Z,79317.34
2023-02-06T20:09:42.744Z,79315.28
2023-02-06T20:12:12.401Z,79311.22
2023-02-06T20:14:40.447Z,79307.13
2023-02-06T20:17:08.335Z,79315.28
2023-02-06T20:19:37.639Z,79323.44
2023-02-06T20:22:06.370Z,79321.41
2023-02-06T20:24:34.729Z,79313.25
2023-02-06T20:27:07.243Z,79317.34
2023-02-06T20:29:36.852Z,79321.41
2023-02-06T20:32:05.566Z,79321.41
2023-02-06T20:34:33.775Z,79319.38
2023-02-06T20:37:02.938Z,79321.41
2023-02-06T20:39:31.213Z,79329.56
2023-02-06T20:41:59.771Z,79323.44
2023-02-06T20:44:28.624Z,79319.38
2023-02-06T20:46:56.450Z,79321.41
2023-02-06T20:49:26.263Z,79315.28
2023-02-06T20:51:54.466Z,79313.25
2023-02-06T20:54:24.902Z,79325.50
2023-02-06T20:56:52.839Z,79329.56
2023-02-06T20:59:21.419Z,79337.75
2023-02-06T21:01:49.226Z,79339.78
2023-02-06T21:04:19.095Z,79337.75
2023-02-06T21:06:48.014Z,79341.81
2023-02-06T21:09:15.951Z,79356.09
2023-02-06T21:11:46.949Z,79364.28
2023-02-06T21:14:15.959Z,79358.16
2023-02-06T21:16:44.728Z,79364.28
2023-02-06T21:19:14.709Z,79374.47
2023-02-06T21:21:45.893Z,79370.38
2023-02-06T21:24:14.460Z,79370.38
2023-02-06T21:26:42.361Z,79372.44
2023-02-06T21:29:13.847Z,79382.63
2023-02-06T21:31:42.197Z,79392.84
2023-02-06T21:34:12.991Z,79386.72
2023-02-06T21:36:41.798Z,79386.72
2023-02-06T21:39:10.374Z,79386.72
2023-02-06T21:41:38.336Z,79374.47
2023-02-06T21:44:06.409Z,79374.47
2023-02-06T21:46:35.765Z,79382.63
2023-02-06T21:49:03.723Z,79388.75
2023-02-06T21:51:31.535Z,79390.78
2023-02-06T21:53:59.429Z,79390.78
2023-02-06T21:56:28.524Z,79394.88
2023-02-06T21:58:56.543Z,79390.78
2023-02-06T22:01:26.271Z,79401.00
2023-02-06T22:03:56.842Z,79401.00
2023-02-06T22:06:25.109Z,79407.13
2023-02-06T22:08:55.822Z,79401.00
2023-02-06T22:11:25.949Z,79409.16
2023-02-06T22:13:54.451Z,79415.28
2023-02-06T22:16:23.713Z,79419.38
2023-02-06T22:18:51.971Z,79427.53
2023-02-06T22:21:23.447Z,79433.66
2023-02-06T22:23:52.411Z,79439.78
2023-02-06T22:26:21.992Z,79447.94
2023-02-06T22:28:49.891Z,79452.03
2023-02-06T22:31:19.964Z,79468.34
2023-02-06T22:33:48.197Z,79480.59
2023-02-06T22:36:17.752Z,79488.75
2023-02-06T22:38:48.388Z,79488.75
2023-02-06T22:41:17.811Z,79501.00
2023-02-06T22:43:46.874Z,79509.16
2023-02-06T22:46:19.914Z,79509.16
2023-02-06T22:48:48.033Z,79507.13
2023-02-06T22:51:15.945Z,79486.72
2023-02-06T22:53:43.923Z,79505.09
2023-02-06T22:56:29.602Z,79505.09
2023-02-06T22:58:59.295Z,79513.25
2023-02-06T23:01:30.647Z,79517.31
2023-02-06T23:03:58.872Z,79521.41
2023-02-06T23:06:28.369Z,79529.56
2023-02-06T23:08:57.441Z,79537.72
2023-02-06T23:11:28.287Z,79539.78
2023-02-06T23:13:58.256Z,79554.06
2023-02-06T23:16:27.037Z,79570.38
2023-02-06T23:18:54.870Z,79568.34
2023-02-06T23:21:25.395Z,79554.06
2023-02-06T23:23:55.474Z,79556.09
2023-02-06T23:26:24.045Z,79558.16
2023-02-06T23:28:53.269Z,79560.19
2023-02-06T23:31:21.070Z,79552.03
2023-02-06T23:33:48.929Z,79549.97
2023-02-06T23:36:18.532Z,79549.97
2023-02-06T23:38:47.234Z,79545.91
2023-02-06T23:41:16.519Z,79539.78
2023-02-06T23:43:44.620Z,79541.81
2023-02-06T23:46:15.259Z,79545.91
2023-02-06T23:48:43.103Z,79556.09
2023-02-06T23:51:11.050Z,79562.22
2023-02-06T23:53:39.210Z,79566.31
2023-02-06T23:56:11.589Z,79570.38
2023-02-06T23:58:39.422Z,79578.56
